Time;durP1;ratioP1;P1;durP2;ratioP2;P2;SDS_P1;SDS_P2;PMS_P1;PMS_P2;Temp;Humidity;BMP_temperature;BMP_pressure;BME280_temperature;BME280_humidity;BME280_pressure;Samples;Min_cycle;Max_cycle;Signal;HPM_P1;HPM_P2
2024/01/28 00:00:37;;;;;;;14.23;8.37;;;;;;;;;;5071031;28;20201;-75
2024/01/28 00:03:03;;;;;;;17.40;9.63;;;;;;;;;;5067528;28;20306;-77
2024/01/28 00:05:29;;;;;;;14.80;9.60;;;;;;;;;;5072005;28;20368;-76
2024/01/28 00:07:55;;;;;;;14.53;9.73;;;;;;;;;;5070692;28;20724;-76
2024/01/28 00:10:22;;;;;;;16.77;10.17;;;;;;;;;;5053985;28;20626;-75
2024/01/28 00:12:48;;;;;;;15.50;10.00;;;;;;;;;;5069617;28;20189;-75
2024/01/28 00:15:14;;;;;;;17.67;10.23;;;;;;;;;;5071662;28;20296;-75
2024/01/28 00:17:40;;;;;;;14.80;9.10;;;;;;;;;;5071974;28;20706;-74
2024/01/28 00:20:07;;;;;;;15.47;9.53;;;;;;;;;;5071940;28;20194;-75
2024/01/28 00:22:33;;;;;;;17.40;10.23;;;;;;;;;;5052419;28;20197;-74
2024/01/28 00:24:59;;;;;;;14.70;9.60;;;;;;;;;;5070261;28;20192;-75
2024/01/28 00:27:25;;;;;;;14.80;9.00;;;;;;;;;;5068752;28;20736;-76
2024/01/28 00:29:51;;;;;;;18.63;8.90;;;;;;;;;;5069693;28;20227;-76
2024/01/28 00:32:18;;;;;;;16.17;8.80;;;;;;;;;;5068283;28;20189;-76
2024/01/28 00:34:44;;;;;;;14.53;8.67;;;;;;;;;;5067120;28;20645;-74
2024/01/28 00:37:10;;;;;;;13.03;8.43;;;;;;;;;;5070266;28;20235;-75
2024/01/28 00:39:36;;;;;;;11.90;7.30;;;;;;;;;;5070474;28;20201;-76
2024/01/28 00:42:04;;;;;;;11.63;7.53;;;;;;;;;;5070712;28;20260;-75
2024/01/28 00:44:30;;;;;;;13.07;7.13;;;;;;;;;;5069415;28;20205;-75
2024/01/28 00:46:59;;;;;;;11.67;6.73;;;;;;;;;;5069904;28;20763;-76
2024/01/28 00:49:31;;;;;;;11.33;6.50;;;;;;;;;;5071362;28;20195;-75
2024/01/28 00:51:57;;;;;;;11.60;6.73;;;;;;;;;;5069691;28;20655;-75
2024/01/28 00:54:24;;;;;;;10.00;6.40;;;;;;;;;;5069701;28;20440;-75
2024/01/28 00:56:52;;;;;;;11.33;6.73;;;;;;;;;;5069792;28;20294;-75
2024/01/28 00:59:19;;;;;;;12.23;6.70;;;;;;;;;;5071225;28;20185;-76
2024/01/28 01:01:45;;;;;;;11.13;6.50;;;;;;;;;;5019969;28;20185;-75
2024/01/28 01:04:11;;;;;;;13.67;8.13;;;;;;;;;;5070806;28;20199;-75
2024/01/28 01:06:39;;;;;;;12.47;7.43;;;;;;;;;;5069546;28;20286;-75
2024/01/28 01:09:07;;;;;;;13.87;7.63;;;;;;;;;;5064868;28;20196;-75
2024/01/28 01:11:33;;;;;;;12.03;8.00;;;;;;;;;;5070395;28;20226;-76
2024/01/28 01:14:00;;;;;;;14.43;8.17;;;;;;;;;;5069086;28;20177;-75
2024/01/28 01:16:26;;;;;;;14.03;8.80;;;;;;;;;;5070909;28;20235;-75
2024/01/28 01:18:52;;;;;;;13.97;7.67;;;;;;;;;;5069323;28;20216;-75
2024/01/28 01:21:18;;;;;;;13.60;8.43;;;;;;;;;;5070354;28;20193;-75
2024/01/28 01:23:44;;;;;;;12.73;8.50;;;;;;;;;;5069145;28;20204;-75
2024/01/28 01:26:10;;;;;;;12.13;7.93;;;;;;;;;;5070676;28;20236;-76
2024/01/28 01:28:37;;;;;;;13.00;8.30;;;;;;;;;;5052537;28;20508;-75
2024/01/28 01:31:03;;;;;;;13.30;8.20;;;;;;;;;;5068899;28;20181;-76
2024/01/28 01:33:29;;;;;;;14.57;7.47;;;;;;;;;;5069678;28;20645;-76
2024/01/28 01:35:56;;;;;;;13.73;8.23;;;;;;;;;;5069543;28;20197;-75
2024/01/28 01:38:22;;;;;;;14.90;8.17;;;;;;;;;;5070237;28;20270;-75
2024/01/28 01:40:49;;;;;;;14.87;9.00;;;;;;;;;;5045271;28;20709;-75
2024/01/28 01:43:15;;;;;;;15.33;8.97;;;;;;;;;;5069057;28;20207;-75
2024/01/28 01:45:42;;;;;;;12.67;8.63;;;;;;;;;;5063612;28;20270;-76
2024/01/28 01:48:10;;;;;;;16.37;9.20;;;;;;;;;;5068614;28;20205;-75
2024/01/28 01:50:36;;;;;;;13.97;8.63;;;;;;;;;;5069130;28;20221;-76
2024/01/28 01:53:04;;;;;;;17.00;9.60;;;;;;;;;;5069254;28;20200;-75
2024/01/28 01:55:30;;;;;;;14.07;9.30;;;;;;;;;;5068266;28;20303;-76
2024/01/28 01:57:57;;;;;;;15.43;9.27;;;;;;;;;;5070151;28;20189;-76
2024/01/28 02:00:23;;;;;;;15.53;8.97;;;;;;;;;;5068609;28;20235;-75
2024/01/28 02:02:50;;;;;;;14.13;9.20;;;;;;;;;;5051273;28;20319;-75
2024/01/28 02:05:16;;;;;;;14.43;9.20;;;;;;;;;;5052166;28;20204;-77
2024/01/28 02:07:42;;;;;;;16.07;9.63;;;;;;;;;;5068581;28;20209;-75
2024/01/28 02:10:09;;;;;;;16.70;10.37;;;;;;;;;;5071097;28;20188;-76
2024/01/28 02:12:36;;;;;;;20.23;11.00;;;;;;;;;;5066705;28;20185;-80
2024/01/28 02:15:12;;;;;;;14.80;9.30;;;;;;;;;;5069880;28;20629;-75
2024/01/28 02:17:38;;;;;;;16.40;9.57;;;;;;;;;;5065100;28;20538;-76
2024/01/28 02:20:04;;;;;;;16.10;9.70;;;;;;;;;;5069227;28;20212;-75
2024/01/28 02:22:31;;;;;;;17.17;9.00;;;;;;;;;;5067864;28;20185;-76
2024/01/28 02:24:57;;;;;;;14.13;9.17;;;;;;;;;;5068118;28;20181;-76
2024/01/28 02:27:24;;;;;;;13.27;8.60;;;;;;;;;;5068375;28;20197;-76
2024/01/28 02:29:50;;;;;;;13.60;8.70;;;;;;;;;;5069496;28;20192;-76
2024/01/28 02:32:17;;;;;;;17.13;9.63;;;;;;;;;;5067947;28;20192;-76
2024/01/28 02:34:43;;;;;;;16.07;9.87;;;;;;;;;;5061555;28;20201;-76
2024/01/28 02:37:12;;;;;;;17.30;10.23;;;;;;;;;;5068599;28;20208;-75
2024/01/28 02:39:39;;;;;;;19.53;10.07;;;;;;;;;;5034635;28;20307;-76
2024/01/28 02:42:05;;;;;;;16.60;9.73;;;;;;;;;;5060523;28;20189;-75
2024/01/28 02:44:31;;;;;;;17.17;10.50;;;;;;;;;;5067794;28;20201;-74
2024/01/28 02:46:57;;;;;;;15.77;10.40;;;;;;;;;;5067853;28;20217;-74
2024/01/28 02:49:24;;;;;;;21.70;10.50;;;;;;;;;;5051622;28;20679;-74
2024/01/28 02:51:51;;;;;;;19.10;10.47;;;;;;;;;;5067394;28;20212;-76
2024/01/28 02:54:17;;;;;;;17.07;10.30;;;;;;;;;;5068667;28;20193;-75
2024/01/28 02:56:43;;;;;;;18.20;10.00;;;;;;;;;;5069096;28;20673;-75
2024/01/28 02:59:10;;;;;;;15.73;10.00;;;;;;;;;;5069980;28;20216;-75
2024/01/28 03:01:46;;;;;;;15.63;8.83;;;;;;;;;;5072614;28;20271;-74
2024/01/28 03:04:13;;;;;;;14.77;9.17;;;;;;;;;;5067454;28;20238;-75
2024/01/28 03:06:39;;;;;;;16.87;9.17;;;;;;;;;;5072230;28;20216;-76
2024/01/28 03:09:05;;;;;;;14.47;8.87;;;;;;;;;;5073632;28;20211;-75
2024/01/28 03:11:32;;;;;;;14.53;9.30;;;;;;;;;;5071659;28;20663;-75
2024/01/28 03:13:58;;;;;;;14.57;9.00;;;;;;;;;;5072733;28;20265;-75
2024/01/28 03:16:24;;;;;;;17.00;9.30;;;;;;;;;;5054313;28;20296;-74
2024/01/28 03:18:50;;;;;;;19.10;9.17;;;;;;;;;;5073354;28;20209;-74
2024/01/28 03:21:16;;;;;;;16.87;9.17;;;;;;;;;;5054718;28;20193;-75
2024/01/28 03:23:43;;;;;;;15.47;9.13;;;;;;;;;;5071466;28;20185;-77
2024/01/28 03:26:12;;;;;;;14.07;8.77;;;;;;;;;;5070427;28;20209;-76
2024/01/28 03:28:39;;;;;;;15.13;9.03;;;;;;;;;;5066604;28;20277;-75
2024/01/28 03:31:05;;;;;;;19.87;10.07;;;;;;;;;;5071959;28;20181;-75
2024/01/28 03:33:31;;;;;;;17.40;10.10;;;;;;;;;;5054325;28;20220;-75
2024/01/28 03:35:58;;;;;;;16.90;10.20;;;;;;;;;;5072812;28;20277;-75
2024/01/28 03:38:24;;;;;;;16.97;9.80;;;;;;;;;;5071586;28;20244;-75
2024/01/28 03:40:50;;;;;;;19.97;9.93;;;;;;;;;;5070315;28;20188;-75
2024/01/28 03:43:17;;;;;;;16.00;9.33;;;;;;;;;;5070774;28;20193;-77
2024/01/28 03:45:43;;;;;;;15.53;9.20;;;;;;;;;;5069671;28;20392;-77
2024/01/28 03:48:09;;;;;;;16.53;9.53;;;;;;;;;;5072886;28;20213;-79
2024/01/28 03:50:35;;;;;;;13.23;9.30;;;;;;;;;;5071601;28;20196;-77
2024/01/28 03:53:01;;;;;;;16.83;8.83;;;;;;;;;;5070206;28;20181;-77
2024/01/28 03:55:27;;;;;;;15.00;8.70;;;;;;;;;;5074204;28;20273;-76
2024/01/28 03:57:53;;;;;;;14.73;9.37;;;;;;;;;;5072680;28;20177;-75
2024/01/28 04:00:22;;;;;;;14.43;9.13;;;;;;;;;;5072059;28;20196;-75
2024/01/28 04:02:48;;;;;;;18.00;9.07;;;;;;;;;;5071627;28;20193;-75
2024/01/28 04:05:14;;;;;;;14.00;8.80;;;;;;;;;;5072568;28;20208;-75
2024/01/28 04:07:40;;;;;;;15.63;9.77;;;;;;;;;;5054284;28;20217;-76
2024/01/28 04:10:07;;;;;;;14.43;9.40;;;;;;;;;;5070565;28;20660;-76
2024/01/28 04:12:33;;;;;;;15.10;9.07;;;;;;;;;;5070668;28;20184;-75
2024/01/28 04:14:59;;;;;;;16.97;9.90;;;;;;;;;;5070256;28;20189;-75
2024/01/28 04:17:25;;;;;;;17.23;9.23;;;;;;;;;;5071956;28;20223;-76
2024/01/28 04:19:52;;;;;;;14.70;8.43;;;;;;;;;;5057685;28;20292;-75
2024/01/28 04:22:18;;;;;;;15.10;8.83;;;;;;;;;;5070318;28;20718;-75
2024/01/28 04:24:44;;;;;;;14.27;8.33;;;;;;;;;;5052242;28;20224;-75
2024/01/28 04:27:10;;;;;;;12.00;8.53;;;;;;;;;;5070418;28;20267;-75
2024/01/28 04:29:36;;;;;;;17.63;9.07;;;;;;;;;;5071960;28;20181;-75
2024/01/28 04:32:04;;;;;;;14.30;8.67;;;;;;;;;;5070105;28;20207;-75
2024/01/28 04:34:30;;;;;;;13.47;9.23;;;;;;;;;;5070479;28;20575;-75
2024/01/28 04:36:56;;;;;;;15.73;8.90;;;;;;;;;;5070761;28;20216;-75
2024/01/28 04:39:22;;;;;;;16.33;9.80;;;;;;;;;;5071315;28;20185;-76
2024/01/28 04:41:49;;;;;;;14.97;8.47;;;;;;;;;;5069878;28;20276;-76
2024/01/28 04:44:15;;;;;;;16.03;8.70;;;;;;;;;;5067936;28;20182;-75
2024/01/28 04:46:41;;;;;;;15.70;9.67;;;;;;;;;;5069904;28;20208;-75
2024/01/28 04:49:08;;;;;;;15.40;8.90;;;;;;;;;;5071399;28;20258;-76
2024/01/28 04:51:34;;;;;;;19.97;10.43;;;;;;;;;;5072428;28;20576;-76
2024/01/28 04:54:00;;;;;;;15.37;9.17;;;;;;;;;;5067575;28;20184;-77
2024/01/28 04:56:26;;;;;;;16.53;9.50;;;;;;;;;;5049662;28;20662;-77
2024/01/28 04:58:52;;;;;;;14.87;9.00;;;;;;;;;;5047090;28;20243;-77
2024/01/28 05:01:19;;;;;;;13.00;8.30;;;;;;;;;;5045201;28;20201;-77
2024/01/28 05:03:45;;;;;;;15.40;8.53;;;;;;;;;;5060776;28;20609;-76
2024/01/28 05:06:12;;;;;;;15.43;9.30;;;;;;;;;;5058438;28;20225;-76
2024/01/28 05:08:38;;;;;;;13.83;8.77;;;;;;;;;;5064243;28;20212;-75
2024/01/28 05:11:04;;;;;;;14.77;9.13;;;;;;;;;;5058730;28;20613;-74
2024/01/28 05:13:30;;;;;;;16.87;9.90;;;;;;;;;;5057807;28;20190;-75
2024/01/28 05:15:56;;;;;;;16.03;9.10;;;;;;;;;;5060316;28;20242;-74
2024/01/28 05:18:22;;;;;;;16.80;9.27;;;;;;;;;;5063041;28;20190;-74
2024/01/28 05:20:49;;;;;;;16.43;9.43;;;;;;;;;;5058707;28;20205;-75
2024/01/28 05:23:15;;;;;;;14.00;8.83;;;;;;;;;;5059812;28;20216;-74
2024/01/28 05:25:41;;;;;;;15.53;8.87;;;;;;;;;;5061006;28;20581;-76
2024/01/28 05:28:08;;;;;;;15.93;8.90;;;;;;;;;;5056742;28;20205;-76
2024/01/28 05:30:35;;;;;;;17.20;9.27;;;;;;;;;;5051826;28;20575;-75
2024/01/28 05:33:01;;;;;;;12.80;8.57;;;;;;;;;;5063133;28;20230;-76
2024/01/28 05:35:30;;;;;;;15.20;8.87;;;;;;;;;;5058852;28;20637;-77
2024/01/28 05:37:56;;;;;;;15.43;8.70;;;;;;;;;;5061325;28;20214;-75
2024/01/28 05:40:23;;;;;;;15.03;9.70;;;;;;;;;;5063180;28;20234;-75
2024/01/28 05:42:49;;;;;;;17.03;10.30;;;;;;;;;;5058697;28;20569;-75
2024/01/28 05:45:15;;;;;;;16.67;9.67;;;;;;;;;;5056354;28;20702;-74
2024/01/28 05:47:41;;;;;;;15.33;9.27;;;;;;;;;;5064335;28;20362;-75
2024/01/28 05:50:07;;;;;;;17.47;9.90;;;;;;;;;;5057500;28;20822;-75
2024/01/28 05:52:33;;;;;;;17.57;9.23;;;;;;;;;;5059207;28;20193;-76
2024/01/28 05:55:00;;;;;;;13.07;9.40;;;;;;;;;;5058376;28;20264;-76
2024/01/28 05:57:26;;;;;;;14.13;9.03;;;;;;;;;;5060221;28;20201;-75
2024/01/28 05:59:52;;;;;;;19.20;10.70;;;;;;;;;;5072970;28;20185;-75
2024/01/28 06:02:18;;;;;;;25.10;11.23;;;;;;;;;;5069816;28;20258;-76
2024/01/28 06:04:44;;;;;;;21.70;11.37;;;;;;;;;;5058703;28;20570;-75
2024/01/28 06:07:10;;;;;;;18.80;10.87;;;;;;;;;;5057048;28;20209;-75
2024/01/28 06:09:36;;;;;;;21.37;10.70;;;;;;;;;;5067845;28;20185;-75
2024/01/28 06:12:04;;;;;;;17.30;9.63;;;;;;;;;;5061271;28;20833;-77
2024/01/28 06:14:30;;;;;;;15.60;9.67;;;;;;;;;;5064962;28;20232;-77
2024/01/28 06:16:56;;;;;;;16.17;10.20;;;;;;;;;;5069673;28;20201;-76
2024/01/28 06:19:22;;;;;;;15.43;9.57;;;;;;;;;;5063875;28;20616;-75
2024/01/28 06:21:48;;;;;;;17.23;9.23;;;;;;;;;;5057579;28;20185;-75
2024/01/28 06:24:14;;;;;;;16.70;10.23;;;;;;;;;;5044529;28;20630;-76
2024/01/28 06:26:41;;;;;;;20.40;10.07;;;;;;;;;;5042287;28;20295;-75
2024/01/28 06:29:07;;;;;;;15.90;9.77;;;;;;;;;;5056858;28;20228;-75
2024/01/28 06:31:33;;;;;;;17.43;10.57;;;;;;;;;;5056920;28;20201;-75
2024/01/28 06:34:00;;;;;;;17.20;9.60;;;;;;;;;;5060702;28;20627;-75
2024/01/28 06:36:26;;;;;;;14.43;9.40;;;;;;;;;;5056561;28;20198;-75
2024/01/28 06:38:52;;;;;;;16.43;9.50;;;;;;;;;;5058798;28;20200;-74
2024/01/28 06:41:18;;;;;;;16.70;8.87;;;;;;;;;;5044635;28;20548;-77
2024/01/28 06:43:44;;;;;;;15.97;9.53;;;;;;;;;;5058419;28;20223;-76
2024/01/28 06:46:15;;;;;;;17.13;9.73;;;;;;;;;;5058669;28;20213;-77
2024/01/28 06:48:42;;;;;;;12.80;9.00;;;;;;;;;;5058361;28;20205;-75
2024/01/28 06:51:09;;;;;;;15.53;9.07;;;;;;;;;;5056338;28;20212;-75
2024/01/28 06:53:36;;;;;;;20.17;10.90;;;;;;;;;;5056634;28;20182;-74
2024/01/28 06:56:03;;;;;;;22.97;11.67;;;;;;;;;;5062359;28;20590;-77
2024/01/28 06:58:29;;;;;;;25.73;13.53;;;;;;;;;;5059824;28;20225;-75
2024/01/28 07:00:55;;;;;;;21.73;12.03;;;;;;;;;;5063899;28;20195;-76
2024/01/28 07:03:21;;;;;;;19.20;11.50;;;;;;;;;;5067777;28;20201;-75
2024/01/28 07:05:48;;;;;;;17.57;10.80;;;;;;;;;;5063530;28;20224;-75
2024/01/28 07:08:14;;;;;;;21.57;12.70;;;;;;;;;;5067110;28;20213;-75
2024/01/28 07:10:40;;;;;;;21.80;11.53;;;;;;;;;;5059863;28;20216;-75
2024/01/28 07:13:08;;;;;;;18.87;11.23;;;;;;;;;;5053748;28;20189;-76
2024/01/28 07:15:34;;;;;;;17.00;10.23;;;;;;;;;;5064981;28;20197;-74
2024/01/28 07:18:00;;;;;;;15.73;9.60;;;;;;;;;;5068277;28;20695;-74
2024/01/28 07:20:27;;;;;;;24.07;21.40;;;;;;;;;;5067809;28;20181;-74
2024/01/28 07:22:53;;;;;;;19.10;13.50;;;;;;;;;;5048327;28;20188;-76
2024/01/28 07:25:19;;;;;;;18.47;12.87;;;;;;;;;;5069273;28;20209;-76
2024/01/28 07:27:46;;;;;;;19.83;11.97;;;;;;;;;;5035775;28;20658;-75
2024/01/28 07:30:13;;;;;;;17.13;11.47;;;;;;;;;;5043715;28;20592;-75
2024/01/28 07:32:39;;;;;;;19.10;11.53;;;;;;;;;;5037692;28;20204;-74
2024/01/28 07:35:06;;;;;;;18.13;10.77;;;;;;;;;;5066732;28;20182;-75
2024/01/28 07:37:32;;;;;;;19.57;11.60;;;;;;;;;;5066145;28;20189;-75
2024/01/28 07:39:58;;;;;;;24.17;13.40;;;;;;;;;;5051604;28;20482;-75
2024/01/28 07:42:24;;;;;;;29.47;14.53;;;;;;;;;;5065585;28;20280;-75
2024/01/28 07:44:50;;;;;;;28.67;16.13;;;;;;;;;;5048666;28;20190;-74
2024/01/28 07:47:16;;;;;;;30.03;16.17;;;;;;;;;;5054089;28;20698;-75
2024/01/28 07:49:42;;;;;;;28.27;16.97;;;;;;;;;;5071569;28;20188;-75
2024/01/28 07:52:08;;;;;;;33.30;19.90;;;;;;;;;;5069612;28;20185;-75
2024/01/28 07:54:36;;;;;;;32.63;20.40;;;;;;;;;;5070483;28;21832;-75
2024/01/28 07:57:02;;;;;;;32.43;19.53;;;;;;;;;;5070204;28;20229;-75
2024/01/28 07:59:28;;;;;;;29.47;18.50;;;;;;;;;;5067453;28;20268;-74
2024/01/28 08:01:54;;;;;;;29.73;18.67;;;;;;;;;;5068383;28;20172;-75
2024/01/28 08:04:21;;;;;;;25.37;14.53;;;;;;;;;;5043744;28;20296;-75
2024/01/28 08:06:47;;;;;;;24.67;14.03;;;;;;;;;;5071388;28;20288;-74
2024/01/28 08:09:13;;;;;;;22.07;13.17;;;;;;;;;;5071389;28;20220;-76
2024/01/28 08:11:39;;;;;;;20.10;12.63;;;;;;;;;;5063880;28;20193;-75
2024/01/28 08:14:05;;;;;;;17.53;11.80;;;;;;;;;;5070463;28;20178;-75
2024/01/28 08:16:31;;;;;;;18.03;11.70;;;;;;;;;;5070886;28;20231;-75
2024/01/28 08:18:57;;;;;;;20.57;12.27;;;;;;;;;;5069289;28;20185;-75
2024/01/28 08:21:24;;;;;;;20.40;11.87;;;;;;;;;;5067441;28;20181;-75
2024/01/28 08:23:50;;;;;;;20.60;13.20;;;;;;;;;;5068771;28;20281;-77
2024/01/28 08:26:16;;;;;;;19.30;12.80;;;;;;;;;;5071013;28;20697;-77
2024/01/28 08:28:42;;;;;;;19.47;12.87;;;;;;;;;;5057955;28;20352;-75
2024/01/28 08:31:08;;;;;;;18.53;11.33;;;;;;;;;;5069462;28;20578;-75
2024/01/28 08:33:35;;;;;;;24.33;13.13;;;;;;;;;;5070578;28;20223;-75
2024/01/28 08:36:01;;;;;;;17.07;11.07;;;;;;;;;;5045157;28;20197;-72
2024/01/28 08:38:29;;;;;;;19.07;11.80;;;;;;;;;;5071711;28;20273;-71
2024/01/28 08:40:55;;;;;;;17.83;11.50;;;;;;;;;;5066542;28;20243;-71
2024/01/28 08:43:21;;;;;;;18.43;12.10;;;;;;;;;;5069165;28;20208;-80
2024/01/28 08:45:47;;;;;;;20.23;11.63;;;;;;;;;;5070893;28;20201;-73
2024/01/28 08:48:13;;;;;;;22.70;12.43;;;;;;;;;;5070140;28;20243;-74
2024/01/28 08:50:39;;;;;;;25.57;18.07;;;;;;;;;;5069793;28;20197;-74
2024/01/28 08:53:05;;;;;;;22.67;14.30;;;;;;;;;;5072206;28;20178;-74
2024/01/28 08:55:32;;;;;;;21.30;13.77;;;;;;;;;;5069038;28;20219;-74
2024/01/28 08:57:58;;;;;;;22.97;13.20;;;;;;;;;;5068572;28;20258;-74
2024/01/28 09:00:24;;;;;;;20.83;12.77;;;;;;;;;;5068939;28;20189;-76
2024/01/28 09:02:50;;;;;;;24.07;12.77;;;;;;;;;;5069557;28;20377;-75
2024/01/28 09:05:16;;;;;;;21.23;13.43;;;;;;;;;;5070759;28;20640;-74
2024/01/28 09:07:45;;;;;;;23.43;12.57;;;;;;;;;;5071258;28;20215;-75
2024/01/28 09:10:11;;;;;;;20.13;13.20;;;;;;;;;;5068569;28;20385;-75
2024/01/28 09:12:37;;;;;;;18.30;12.97;;;;;;;;;;5068435;28;20203;-77
2024/01/28 09:15:03;;;;;;;22.90;14.20;;;;;;;;;;5068555;28;20289;-76
2024/01/28 09:17:30;;;;;;;19.13;12.97;;;;;;;;;;5022664;28;20200;-74
2024/01/28 09:19:56;;;;;;;20.43;13.37;;;;;;;;;;5068959;28;20683;-74
2024/01/28 09:22:22;;;;;;;23.00;12.77;;;;;;;;;;5073118;28;20196;-74
2024/01/28 09:24:49;;;;;;;20.43;12.20;;;;;;;;;;5068443;28;20197;-74
2024/01/28 09:27:15;;;;;;;20.33;13.47;;;;;;;;;;5070063;28;20204;-74
2024/01/28 09:29:41;;;;;;;24.43;15.33;;;;;;;;;;5072407;28;20265;-75
2024/01/28 09:32:08;;;;;;;23.10;15.50;;;;;;;;;;5052566;28;20185;-75
2024/01/28 09:34:34;;;;;;;25.73;15.13;;;;;;;;;;5067884;28;20674;-74
2024/01/28 09:37:00;;;;;;;22.17;13.90;;;;;;;;;;5067648;28;20676;-74
2024/01/28 09:39:28;;;;;;;19.67;13.30;;;;;;;;;;5066305;28;20181;-73
2024/01/28 09:42:12;;;;;;;20.63;13.13;;;;;;;;;;5063920;28;20189;-74
2024/01/28 09:44:39;;;;;;;21.40;12.10;;;;;;;;;;5071467;28;20188;-74
2024/01/28 09:47:06;;;;;;;23.73;13.97;;;;;;;;;;5069316;28;20276;-74
2024/01/28 09:49:39;;;;;;;24.13;13.53;;;;;;;;;;5068308;28;20191;-75
2024/01/28 09:52:12;;;;;;;20.53;13.43;;;;;;;;;;5067603;28;20557;-75
2024/01/28 09:54:39;;;;;;;21.00;12.40;;;;;;;;;;5062789;28;20282;-74
2024/01/28 09:57:07;;;;;;;18.73;12.53;;;;;;;;;;5067903;28;20283;-77
2024/01/28 09:59:36;;;;;;;20.90;12.90;;;;;;;;;;5072589;28;20251;-74
2024/01/28 10:02:03;;;;;;;17.67;12.23;;;;;;;;;;5061344;28;20188;-75
2024/01/28 10:04:30;;;;;;;20.30;12.70;;;;;;;;;;5053710;28;20203;-74
2024/01/28 10:06:59;;;;;;;20.37;12.70;;;;;;;;;;4993965;28;20197;-74
2024/01/28 10:09:26;;;;;;;17.80;12.60;;;;;;;;;;4998380;28;20181;-77
2024/01/28 10:11:52;;;;;;;20.23;11.97;;;;;;;;;;4946455;28;20265;-75
2024/01/28 10:14:19;;;;;;;20.70;11.70;;;;;;;;;;4992759;28;20528;-74
2024/01/28 10:16:49;;;;;;;19.83;12.07;;;;;;;;;;4939772;28;20212;-74
2024/01/28 10:19:15;;;;;;;17.47;11.53;;;;;;;;;;4929548;28;22591;-75
2024/01/28 10:21:44;;;;;;;18.83;11.40;;;;;;;;;;5002841;28;20188;-76
2024/01/28 10:24:11;;;;;;;17.97;11.13;;;;;;;;;;4964496;28;20181;-77
2024/01/28 10:26:38;;;;;;;18.00;11.63;;;;;;;;;;5070591;28;20216;-82
2024/01/28 10:29:06;;;;;;;16.63;10.87;;;;;;;;;;5064883;28;20241;-79
2024/01/28 10:31:33;;;;;;;16.53;11.33;;;;;;;;;;4935372;28;20192;-79
2024/01/28 10:33:59;;;;;;;15.40;10.87;;;;;;;;;;4997850;28;20998;-76
2024/01/28 10:36:26;;;;;;;16.17;11.00;;;;;;;;;;5012945;28;20307;-78
2024/01/28 10:38:55;;;;;;;18.43;10.63;;;;;;;;;;4925407;28;20200;-74
2024/01/28 10:41:23;;;;;;;14.63;9.93;;;;;;;;;;5045741;28;20181;-71
2024/01/28 10:43:57;;;;;;;16.30;10.57;;;;;;;;;;4960659;28;20671;-73
2024/01/28 10:46:28;;;;;;;18.50;10.73;;;;;;;;;;4924637;28;20241;-74
2024/01/28 10:48:56;;;;;;;15.80;10.40;;;;;;;;;;4930855;28;20706;-72
2024/01/28 10:51:23;;;;;;;17.70;10.17;;;;;;;;;;5025621;28;20177;-73
2024/01/28 10:53:51;;;;;;;15.87;9.87;;;;;;;;;;4924077;28;20602;-73
2024/01/28 10:56:17;;;;;;;15.87;9.53;;;;;;;;;;4980686;28;20286;-71
2024/01/28 10:58:44;;;;;;;16.63;9.43;;;;;;;;;;4979231;28;20196;-72
2024/01/28 11:01:11;;;;;;;13.67;10.10;;;;;;;;;;5066177;28;20643;-74
2024/01/28 11:03:37;;;;;;;13.67;9.57;;;;;;;;;;5008145;28;20218;-74
2024/01/28 11:06:04;;;;;;;16.00;9.90;;;;;;;;;;4927200;28;20206;-74
2024/01/28 11:08:30;;;;;;;16.33;9.70;;;;;;;;;;4926130;28;20693;-74
2024/01/28 11:10:56;;;;;;;18.67;10.60;;;;;;;;;;4990334;28;20200;-74
2024/01/28 11:13:23;;;;;;;15.17;10.70;;;;;;;;;;4925897;28;20189;-74
2024/01/28 11:15:49;;;;;;;15.40;10.33;;;;;;;;;;4983082;28;20201;-77
2024/01/28 11:18:16;;;;;;;16.67;10.87;;;;;;;;;;4964244;28;20196;-72
2024/01/28 11:20:42;;;;;;;14.83;10.33;;;;;;;;;;4958461;28;21914;-72
2024/01/28 11:23:16;;;;;;;17.30;10.10;;;;;;;;;;5065043;28;20238;-72
2024/01/28 11:25:42;;;;;;;14.40;10.13;;;;;;;;;;5014799;28;20212;-73
2024/01/28 11:28:08;;;;;;;15.90;10.57;;;;;;;;;;5024947;28;20208;-71
2024/01/28 11:30:37;;;;;;;17.77;10.93;;;;;;;;;;5030167;28;20308;-73
2024/01/28 11:33:16;;;;;;;14.60;10.27;;;;;;;;;;5068955;28;20191;-73
2024/01/28 11:35:44;;;;;;;16.03;10.40;;;;;;;;;;5069806;28;20672;-72
2024/01/28 11:38:15;;;;;;;17.20;10.43;;;;;;;;;;5004124;28;20192;-72
2024/01/28 11:40:41;;;;;;;19.23;10.87;;;;;;;;;;4969599;28;20213;-72
2024/01/28 11:43:08;;;;;;;16.07;11.07;;;;;;;;;;5006462;28;20327;-72
2024/01/28 11:45:36;;;;;;;16.70;10.93;;;;;;;;;;5036934;28;20205;-74
2024/01/28 11:48:06;;;;;;;13.80;9.83;;;;;;;;;;4957143;28;20935;-73
2024/01/28 11:50:32;;;;;;;16.93;10.27;;;;;;;;;;4939733;28;20208;-74
2024/01/28 11:52:58;;;;;;;15.57;10.07;;;;;;;;;;5067103;28;20184;-74
2024/01/28 11:55:24;;;;;;;16.03;10.23;;;;;;;;;;4933100;28;20204;-73
2024/01/28 11:57:51;;;;;;;14.03;10.07;;;;;;;;;;5019706;28;20809;-74
2024/01/28 12:00:17;;;;;;;14.97;9.23;;;;;;;;;;5069485;28;20588;-72
2024/01/28 12:02:43;;;;;;;10.93;8.33;;;;;;;;;;5031278;28;21111;-73
2024/01/28 12:05:10;;;;;;;11.07;8.57;;;;;;;;;;5004376;28;20203;-72
2024/01/28 12:07:37;;;;;;;13.17;8.60;;;;;;;;;;4944608;28;20228;-72
2024/01/28 12:10:08;;;;;;;12.90;8.53;;;;;;;;;;4961740;28;20574;-74
2024/01/28 12:12:37;;;;;;;13.53;8.53;;;;;;;;;;5016217;28;20207;-79
2024/01/28 12:15:07;;;;;;;11.60;7.80;;;;;;;;;;5016995;28;20181;-75
2024/01/28 12:17:35;;;;;;;13.07;7.67;;;;;;;;;;5070896;28;20181;-75
2024/01/28 12:20:03;;;;;;;13.03;7.73;;;;;;;;;;4998147;28;20224;-80
2024/01/28 12:22:36;;;;;;;12.50;8.03;;;;;;;;;;4944792;28;20185;-73
2024/01/28 12:25:12;;;;;;;10.43;7.87;;;;;;;;;;4923121;28;20193;-76
2024/01/28 12:27:39;;;;;;;13.03;7.60;;;;;;;;;;4982572;28;20226;-75
2024/01/28 12:30:07;;;;;;;9.10;7.57;;;;;;;;;;5030332;28;20208;-76
2024/01/28 12:32:33;;;;;;;11.83;7.10;;;;;;;;;;5018889;28;20594;-72
2024/01/28 12:35:03;;;;;;;9.43;7.00;;;;;;;;;;5071915;28;20201;-72
2024/01/28 12:37:40;;;;;;;12.80;7.57;;;;;;;;;;4929124;28;20185;-72
2024/01/28 12:40:07;;;;;;;9.10;7.13;;;;;;;;;;4932015;28;20192;-72
2024/01/28 12:42:38;;;;;;;10.27;6.67;;;;;;;;;;5008768;28;20207;-72
2024/01/28 12:45:04;;;;;;;9.43;6.47;;;;;;;;;;5009481;28;20189;-72
2024/01/28 12:47:31;;;;;;;10.60;6.63;;;;;;;;;;5010117;28;20203;-72
2024/01/28 12:49:58;;;;;;;9.53;6.60;;;;;;;;;;5079369;28;20221;-72
2024/01/28 12:52:24;;;;;;;9.97;6.30;;;;;;;;;;4979304;28;20185;-73
2024/01/28 12:54:50;;;;;;;10.67;7.33;;;;;;;;;;5056681;28;20181;-74
2024/01/28 12:57:17;;;;;;;10.03;6.33;;;;;;;;;;4980190;28;20197;-73
2024/01/28 12:59:43;;;;;;;10.13;6.43;;;;;;;;;;4938320;28;20903;-72
2024/01/28 13:02:09;;;;;;;7.87;5.97;;;;;;;;;;5005519;28;20189;-72
2024/01/28 13:04:35;;;;;;;9.83;5.90;;;;;;;;;;4899008;28;20661;-74
2024/01/28 13:07:01;;;;;;;8.37;5.43;;;;;;;;;;4937980;28;20677;-75
2024/01/28 13:09:28;;;;;;;8.03;5.27;;;;;;;;;;5036395;28;20287;-77
2024/01/28 13:11:54;;;;;;;9.13;5.47;;;;;;;;;;4951214;28;20553;-79
2024/01/28 13:14:20;;;;;;;11.50;5.90;;;;;;;;;;5000839;28;20182;-77
2024/01/28 13:16:47;;;;;;;7.90;5.73;;;;;;;;;;4922714;28;20674;-78
2024/01/28 13:19:13;;;;;;;8.43;5.57;;;;;;;;;;4928393;28;22870;-78
2024/01/28 13:21:39;;;;;;;8.30;6.00;;;;;;;;;;5019535;28;20192;-77
2024/01/28 13:24:06;;;;;;;8.40;5.70;;;;;;;;;;4990258;28;20183;-78
2024/01/28 13:26:32;;;;;;;7.20;5.40;;;;;;;;;;4989240;28;20239;-78
2024/01/28 13:28:58;;;;;;;7.53;5.87;;;;;;;;;;4945813;28;20756;-78
2024/01/28 13:31:24;;;;;;;9.13;6.10;;;;;;;;;;4913465;28;20795;-78
2024/01/28 13:33:50;;;;;;;9.80;6.30;;;;;;;;;;4986358;28;20183;-77
2024/01/28 13:36:17;;;;;;;10.43;5.80;;;;;;;;;;4985869;28;20584;-77
2024/01/28 13:38:43;;;;;;;9.17;6.30;;;;;;;;;;4956496;28;21253;-77
2024/01/28 13:41:09;;;;;;;8.80;5.30;;;;;;;;;;4955297;28;20188;-76
2024/01/28 13:43:36;;;;;;;9.10;5.57;;;;;;;;;;4877174;28;20708;-76
2024/01/28 13:46:02;;;;;;;8.27;5.37;;;;;;;;;;4944193;28;20212;-79
2024/01/28 13:48:29;;;;;;;9.13;5.60;;;;;;;;;;5014913;28;20214;-78
2024/01/28 13:50:56;;;;;;;11.70;6.07;;;;;;;;;;4910966;28;20261;-79
2024/01/28 13:53:22;;;;;;;10.33;6.20;;;;;;;;;;4978361;28;20187;-76
2024/01/28 13:55:49;;;;;;;7.90;5.93;;;;;;;;;;4933561;28;21061;-77
2024/01/28 13:58:15;;;;;;;7.73;5.37;;;;;;;;;;4889037;28;21793;-78
2024/01/28 14:00:41;;;;;;;8.13;5.57;;;;;;;;;;5006010;28;20197;-77
2024/01/28 14:03:08;;;;;;;8.30;5.40;;;;;;;;;;4877698;28;20193;-78
2024/01/28 14:05:35;;;;;;;8.23;5.13;;;;;;;;;;4955552;28;20213;-77
2024/01/28 14:08:02;;;;;;;9.37;5.90;;;;;;;;;;4943078;28;20223;-76
2024/01/28 14:10:28;;;;;;;10.70;6.37;;;;;;;;;;4926912;28;20231;-76
2024/01/28 14:12:57;;;;;;;7.90;5.70;;;;;;;;;;4978008;28;20227;-75
2024/01/28 14:15:23;;;;;;;10.57;5.57;;;;;;;;;;5014578;28;20204;-76
2024/01/28 14:17:49;;;;;;;9.70;5.80;;;;;;;;;;5037810;28;20181;-76
2024/01/28 14:20:15;;;;;;;9.20;5.73;;;;;;;;;;5068145;28;20246;-75
2024/01/28 14:22:41;;;;;;;8.77;5.73;;;;;;;;;;4973362;28;20205;-76